Portada
METAR-TAF:

METAR-TAF

Aeroports :

Kulob, Tadjikistan

latitud: 37-59-18N, longitud: 069-48-18E, altitud: 699 m

Observació

L'informe es va fer fa 28 minuts, a les 08:00 UTC
Vent 6 kt del Sud/Sud-Oest, variant entre Sud i Oest/Sud-Oest
Temperatura 14°C
Humitat 63%
Pressió 1023 hPa
Visibilitat 10 km o més

METAR: UTDK 120800Z 20003MPS 170V240 9999 NSC 14/07 Q1023 R01/09//70 RMK QFE709/0946

Hora: 13:28 (08:28 UTC)

Pronòstic

L'informe es va fer fa 2 hores i 28 minuts, a les 06:00 UTC
Pronòstic vàlid del 12 a les 07 UTC al 12 a les 16 UTC
Vent 4 kt amb direcció variable
Visibilitat: 6000 m
Escasses núvols a una alçada de 6000 ft
Núvols disperses a una alçada de 11000 ft
Temporalment
l' 12 a les 07 UTC al 12 a les 13 UTC
Vent 10 kt del Sud/Sud-Oest

TAF: UTDK 120600Z 1207/1216 VRB02MPS 6000 FEW060 SCT110 TEMPO 1207/1213 20005MPS

Observacions i pronòstics meteorològics de més de 4000 aeroports (METAR i TAF).

Les estacions disponibles són els punts grocs i vermells al mapa.

Posi el ratolí al punt desitjat per veure el nom de l'estació.

Feu clic per veure les observacions i els pronòstics meteorològics.

Per canviar el mapa: feu clic els botons verds amb una creu de color negre per apropar; al botó verd amb un guió per allunyar la imatge; o en les fletxes verdes per a mapes adjacents.


METAR-TAF: